sensor_id;sensor_type;location;lat;lon;timestamp;pressure;altitude;pressure_sealevel;temperature;humidity
21109;BME280;10712;52.944;9.098;2022-10-26T00:00:48;101521.63;;;17.06;54.03
21109;BME280;10712;52.944;9.098;2022-10-26T00:03:15;101515.03;;;17.10;53.92
21109;BME280;10712;52.944;9.098;2022-10-26T00:05:41;101519.66;;;17.08;54.04
21109;BME280;10712;52.944;9.098;2022-10-26T00:08:07;101515.41;;;17.06;54.02
21109;BME280;10712;52.944;9.098;2022-10-26T00:10:35;101524.34;;;17.06;53.98
21109;BME280;10712;52.944;9.098;2022-10-26T00:13:02;101525.31;;;17.05;54.04
21109;BME280;10712;52.944;9.098;2022-10-26T00:15:28;101530.69;;;17.05;54.01
21109;BME280;10712;52.944;9.098;2022-10-26T00:17:54;101528.97;;;17.04;54.06
21109;BME280;10712;52.944;9.098;2022-10-26T00:20:21;101521.63;;;17.06;54.06
21109;BME280;10712;52.944;9.098;2022-10-26T00:22:47;101516.25;;;17.06;54.12
21109;BME280;10712;52.944;9.098;2022-10-26T00:25:13;101528.75;;;17.07;54.17
21109;BME280;10712;52.944;9.098;2022-10-26T00:27:38;101529.47;;;17.09;54.24
21109;BME280;10712;52.944;9.098;2022-10-26T00:30:05;101523.38;;;17.07;54.20
21109;BME280;10712;52.944;9.098;2022-10-26T00:32:32;101524.34;;;17.06;54.18
21109;BME280;10712;52.944;9.098;2022-10-26T00:34:58;101523.56;;;17.04;54.14
21109;BME280;10712;52.944;9.098;2022-10-26T00:37:24;101525.50;;;17.02;54.13
21109;BME280;10712;52.944;9.098;2022-10-26T00:39:49;101525.75;;;16.99;54.25
21109;BME280;10712;52.944;9.098;2022-10-26T00:42:19;101524.88;;;16.99;54.32
21109;BME280;10712;52.944;9.098;2022-10-26T00:50:04;101528.34;;;16.88;54.24
21109;BME280;10712;52.944;9.098;2022-10-26T00:52:32;101534.72;;;16.87;54.26
21109;BME280;10712;52.944;9.098;2022-10-26T00:54:58;101526.84;;;16.84;54.34
21109;BME280;10712;52.944;9.098;2022-10-26T00:57:25;101528.56;;;16.85;54.29
21109;BME280;10712;52.944;9.098;2022-10-26T00:59:54;101525.13;;;16.83;54.26
21109;BME280;10712;52.944;9.098;2022-10-26T01:02:22;101522.00;;;16.76;54.18
21109;BME280;10712;52.944;9.098;2022-10-26T01:04:49;101528.25;;;16.77;54.20
21109;BME280;10712;52.944;9.098;2022-10-26T01:07:15;101530.09;;;16.76;54.20
21109;BME280;10712;52.944;9.098;2022-10-26T01:09:41;101528.59;;;16.72;54.06
21109;BME280;10712;52.944;9.098;2022-10-26T01:12:07;101528.47;;;16.74;54.15
21109;BME280;10712;52.944;9.098;2022-10-26T01:14:33;101526.00;;;16.71;53.98
21109;BME280;10712;52.944;9.098;2022-10-26T01:23:08;101522.81;;;16.66;53.97
21109;BME280;10712;52.944;9.098;2022-10-26T01:26:17;101527.72;;;16.59;54.13
21109;BME280;10712;52.944;9.098;2022-10-26T01:29:19;101518.03;;;16.57;54.03
21109;BME280;10712;52.944;9.098;2022-10-26T01:32:00;101519.97;;;16.54;54.13
21109;BME280;10712;52.944;9.098;2022-10-26T01:34:43;101513.09;;;16.50;54.13
21109;BME280;10712;52.944;9.098;2022-10-26T01:37:22;101517.50;;;16.51;54.23
21109;BME280;10712;52.944;9.098;2022-10-26T01:40:02;101504.06;;;16.51;54.27
21109;BME280;10712;52.944;9.098;2022-10-26T01:42:31;101505.13;;;16.49;54.28
21109;BME280;10712;52.944;9.098;2022-10-26T01:45:08;101498.88;;;16.48;54.38
21109;BME280;10712;52.944;9.098;2022-10-26T01:47:37;101497.16;;;16.47;54.36
21109;BME280;10712;52.944;9.098;2022-10-26T01:50:06;101497.16;;;16.47;54.43
21109;BME280;10712;52.944;9.098;2022-10-26T01:52:32;101502.53;;;16.47;54.42
21109;BME280;10712;52.944;9.098;2022-10-26T01:55:50;101508.88;;;16.46;54.55
21109;BME280;10712;52.944;9.098;2022-10-26T01:57:53;101498.34;;;16.43;54.71
21109;BME280;10712;52.944;9.098;2022-10-26T02:00:25;101495.44;;;16.46;54.76
21109;BME280;10712;52.944;9.098;2022-10-26T02:06:05;101489.09;;;16.47;54.69
21109;BME280;10712;52.944;9.098;2022-10-26T02:09:01;101484.91;;;16.43;54.57
21109;BME280;10712;52.944;9.098;2022-10-26T02:11:37;101490.50;;;16.40;54.77
21109;BME280;10712;52.944;9.098;2022-10-26T02:14:24;101491.69;;;16.36;54.72
21109;BME280;10712;52.944;9.098;2022-10-26T02:17:05;101489.19;;;16.33;54.91
21109;BME280;10712;52.944;9.098;2022-10-26T02:22:35;101489.53;;;16.41;54.61
21109;BME280;10712;52.944;9.098;2022-10-26T02:25:11;101483.19;;;16.42;54.57
21109;BME280;10712;52.944;9.098;2022-10-26T02:27:46;101489.53;;;16.41;54.55
21109;BME280;10712;52.944;9.098;2022-10-26T02:30:15;101475.66;;;16.35;54.92
21109;BME280;10712;52.944;9.098;2022-10-26T02:32:47;101476.19;;;16.40;54.80
21109;BME280;10712;52.944;9.098;2022-10-26T02:35:19;101483.19;;;16.42;54.69
21109;BME280;10712;52.944;9.098;2022-10-26T02:37:47;101479.31;;;16.34;54.83
21109;BME280;10712;52.944;9.098;2022-10-26T02:40:19;101474.59;;;16.37;54.87
21109;BME280;10712;52.944;9.098;2022-10-26T02:42:49;101472.63;;;16.39;54.85
21109;BME280;10712;52.944;9.098;2022-10-26T02:45:22;101463.59;;;16.40;55.11
21109;BME280;10712;52.944;9.098;2022-10-26T02:47:51;101461.00;;;16.39;55.04
21109;BME280;10712;52.944;9.098;2022-10-26T02:50:25;101462.00;;;16.38;55.23
21109;BME280;10712;52.944;9.098;2022-10-26T02:55:43;101446.16;;;16.33;55.39
21109;BME280;10712;52.944;9.098;2022-10-26T02:58:35;101449.09;;;16.30;55.62
21109;BME280;10712;52.944;9.098;2022-10-26T03:01:03;101449.81;;;16.32;55.47
21109;BME280;10712;52.944;9.098;2022-10-26T03:03:29;101448.13;;;16.31;55.63
21109;BME280;10712;52.944;9.098;2022-10-26T03:05:55;101447.91;;;16.34;55.67
21109;BME280;10712;52.944;9.098;2022-10-26T03:08:20;101437.78;;;16.38;55.98
21109;BME280;10712;52.944;9.098;2022-10-26T03:10:46;101436.94;;;16.37;55.82
21109;BME280;10712;52.944;9.098;2022-10-26T03:13:13;101432.63;;;16.35;55.87
21109;BME280;10712;52.944;9.098;2022-10-26T03:15:39;101438.88;;;16.35;56.02
21109;BME280;10712;52.944;9.098;2022-10-26T03:18:05;101436.28;;;16.34;56.12
21109;BME280;10712;52.944;9.098;2022-10-26T03:20:31;101431.13;;;16.43;55.91
21109;BME280;10712;52.944;9.098;2022-10-26T03:22:57;101438.63;;;16.51;56.08
21109;BME280;10712;52.944;9.098;2022-10-26T03:25:24;101431.28;;;16.53;56.10
21109;BME280;10712;52.944;9.098;2022-10-26T03:28:02;101431.28;;;16.53;56.21
21109;BME280;10712;52.944;9.098;2022-10-26T03:30:30;101431.19;;;16.54;56.19
21109;BME280;10712;52.944;9.098;2022-10-26T03:32:56;101434.84;;;16.53;56.36
21109;BME280;10712;52.944;9.098;2022-10-26T03:35:22;101435.59;;;16.55;56.28
21109;BME280;10712;52.944;9.098;2022-10-26T03:37:48;101429.34;;;16.55;56.44
21109;BME280;10712;52.944;9.098;2022-10-26T03:40:15;101424.75;;;16.57;56.41
21109;BME280;10712;52.944;9.098;2022-10-26T03:42:40;101421.19;;;16.57;56.64
21109;BME280;10712;52.944;9.098;2022-10-26T03:45:08;101419.47;;;16.55;56.66
21109;BME280;10712;52.944;9.098;2022-10-26T03:47:41;101421.19;;;16.57;56.68
21109;BME280;10712;52.944;9.098;2022-10-26T03:50:07;101426.31;;;16.60;56.81
21109;BME280;10712;52.944;9.098;2022-10-26T03:52:33;101433.25;;;16.64;56.82
21109;BME280;10712;52.944;9.098;2022-10-26T03:54:59;101433.88;;;16.67;57.00
21109;BME280;10712;52.944;9.098;2022-10-26T03:57:25;101428.28;;;16.70;57.00
21109;BME280;10712;52.944;9.098;2022-10-26T03:59:50;101423.53;;;16.74;57.05
21109;BME280;10712;52.944;9.098;2022-10-26T04:02:16;101423.53;;;16.74;57.31
21109;BME280;10712;52.944;9.098;2022-10-26T04:04:42;101428.69;;;16.77;57.30
21109;BME280;10712;52.944;9.098;2022-10-26T04:07:07;101431.28;;;16.78;57.33
21109;BME280;10712;52.944;9.098;2022-10-26T04:09:33;101429.44;;;16.79;57.13
21109;BME280;10712;52.944;9.098;2022-10-26T04:11:59;101425.03;;;16.78;57.29
21109;BME280;10712;52.944;9.098;2022-10-26T04:14:25;101428.69;;;16.77;57.21
21109;BME280;10712;52.944;9.098;2022-10-26T04:16:50;101422.44;;;16.76;57.31
21109;BME280;10712;52.944;9.098;2022-10-26T04:19:16;101420.09;;;16.72;57.32
21109;BME280;10712;52.944;9.098;2022-10-26T04:21:42;101430.88;;;16.72;57.30
21109;BME280;10712;52.944;9.098;2022-10-26T04:24:09;101426.22;;;16.74;57.30
21109;BME280;10712;52.944;9.098;2022-10-26T04:26:35;101423.31;;;16.77;57.37
21109;BME280;10712;52.944;9.098;2022-10-26T04:29:01;101433.88;;;16.80;57.34
21109;BME280;10712;52.944;9.098;2022-10-26T04:31:31;101431.91;;;16.82;57.29
21109;BME280;10712;52.944;9.098;2022-10-26T04:33:57;101439.00;;;16.83;57.46
21109;BME280;10712;52.944;9.098;2022-10-26T04:36:23;101440.06;;;16.80;57.33
21109;BME280;10712;52.944;9.098;2022-10-26T04:38:49;101437.75;;;16.76;57.25
21109;BME280;10712;52.944;9.098;2022-10-26T04:41:15;101437.97;;;16.73;57.41
21109;BME280;10712;52.944;9.098;2022-10-26T04:43:40;101436.25;;;16.72;57.21
21109;BME280;10712;52.944;9.098;2022-10-26T04:46:06;101434.75;;;16.68;57.31
21109;BME280;10712;52.944;9.098;2022-10-26T04:48:32;101434.75;;;16.68;57.37
21109;BME280;10712;52.944;9.098;2022-10-26T04:50:59;101437.56;;;16.66;57.23
21109;BME280;10712;52.944;9.098;2022-10-26T04:53:26;101435.84;;;16.65;57.25
21109;BME280;10712;52.944;9.098;2022-10-26T04:56:00;101434.97;;;16.65;57.23
21109;BME280;10712;52.944;9.098;2022-10-26T04:58:27;101433.47;;;16.61;57.22
21109;BME280;10712;52.944;9.098;2022-10-26T05:00:53;101435.19;;;16.62;57.14
21109;BME280;10712;52.944;9.098;2022-10-26T05:03:19;101433.56;;;16.59;57.21
21109;BME280;10712;52.944;9.098;2022-10-26T05:05:45;101433.47;;;16.61;57.23
21109;BME280;10712;52.944;9.098;2022-10-26T05:08:15;101431.63;;;16.61;57.22
21109;BME280;10712;52.944;9.098;2022-10-26T05:10:41;101436.25;;;16.59;57.15
21109;BME280;10712;52.944;9.098;2022-10-26T05:13:08;101433.56;;;16.59;57.07
21109;BME280;10712;52.944;9.098;2022-10-26T05:15:34;101436.25;;;16.59;57.16
21109;BME280;10712;52.944;9.098;2022-10-26T05:18:02;101431.72;;;16.60;57.15
21109;BME280;10712;52.944;9.098;2022-10-26T05:20:32;101428.09;;;16.61;57.08
21109;BME280;10712;52.944;9.098;2022-10-26T05:23:10;101426.16;;;16.63;57.05
21109;BME280;10712;52.944;9.098;2022-10-26T05:25:37;101426.16;;;16.63;57.14
21109;BME280;10712;52.944;9.098;2022-10-26T05:28:08;101425.41;;;16.61;56.99
21109;BME280;10712;52.944;9.098;2022-10-26T05:30:36;101424.44;;;16.62;57.02
21109;BME280;10712;52.944;9.098;2022-10-26T05:33:02;101428.94;;;16.61;57.03
21109;BME280;10712;52.944;9.098;2022-10-26T05:35:29;101421.19;;;16.57;57.12
21109;BME280;10712;52.944;9.098;2022-10-26T05:37:55;101423.13;;;16.54;57.03
21109;BME280;10712;52.944;9.098;2022-10-26T05:40:21;101424.22;;;16.52;56.98
21109;BME280;10712;52.944;9.098;2022-10-26T05:42:47;101418.69;;;16.53;57.07
21109;BME280;10712;52.944;9.098;2022-10-26T05:45:13;101416.16;;;16.52;57.06
21109;BME280;10712;52.944;9.098;2022-10-26T05:47:41;101418.94;;;16.50;57.06
21109;BME280;10712;52.944;9.098;2022-10-26T05:50:08;101421.63;;;16.50;56.96
21109;BME280;10712;52.944;9.098;2022-10-26T05:52:45;101413.56;;;16.50;56.96
21109;BME280;10712;52.944;9.098;2022-10-26T05:55:16;101412.81;;;16.48;57.21
21109;BME280;10712;52.944;9.098;2022-10-26T05:57:43;101416.25;;;16.50;57.02
21109;BME280;10712;52.944;9.098;2022-10-26T06:00:18;101423.56;;;16.48;57.05
21109;BME280;10712;52.944;9.098;2022-10-26T06:03:07;101416.47;;;16.47;57.13
21109;BME280;10712;52.944;9.098;2022-10-26T06:05:57;101430.47;;;16.52;57.25
21109;BME280;10712;52.944;9.098;2022-10-26T06:08:26;101428.41;;;16.56;57.41
21109;BME280;10712;52.944;9.098;2022-10-26T06:10:56;101427.31;;;16.59;57.48
21109;BME280;10712;52.944;9.098;2022-10-26T06:13:24;101435.41;;;16.59;57.37
21109;BME280;10712;52.944;9.098;2022-10-26T06:16:05;101434.31;;;16.61;57.66
21109;BME280;10712;52.944;9.098;2022-10-26T06:25:14;101446.91;;;16.61;57.55
21109;BME280;10712;52.944;9.098;2022-10-26T06:28:03;101441.63;;;16.59;57.66
21109;BME280;10712;52.944;9.098;2022-10-26T06:30:32;101442.47;;;16.60;57.58
21109;BME280;10712;52.944;9.098;2022-10-26T06:32:58;101444.22;;;16.61;57.67
21109;BME280;10712;52.944;9.098;2022-10-26T06:38:15;101452.28;;;16.61;57.50
21109;BME280;10712;52.944;9.098;2022-10-26T06:40:46;101449.59;;;16.61;57.66
21109;BME280;10712;52.944;9.098;2022-10-26T06:43:26;101449.81;;;16.58;57.51
21109;BME280;10712;52.944;9.098;2022-10-26T06:51:58;101464.22;;;16.57;57.84
21109;BME280;10712;52.944;9.098;2022-10-26T06:54:49;101473.50;;;16.65;57.68
21109;BME280;10712;52.944;9.098;2022-10-26T06:57:22;101473.28;;;16.68;57.64
21109;BME280;10712;52.944;9.098;2022-10-26T06:59:53;101469.31;;;16.61;57.80
21109;BME280;10712;52.944;9.098;2022-10-26T07:02:20;101476.94;;;16.67;57.80
21109;BME280;10712;52.944;9.098;2022-10-26T07:04:46;101479.50;;;16.69;57.67
21109;BME280;10712;52.944;9.098;2022-10-26T07:07:20;101475.22;;;16.66;57.64
21109;BME280;10712;52.944;9.098;2022-10-26T07:09:46;101479.75;;;16.66;57.84
21109;BME280;10712;52.944;9.098;2022-10-26T07:12:12;101474.88;;;16.71;57.90
21109;BME280;10712;52.944;9.098;2022-10-26T07:14:38;101479.31;;;16.72;57.96
21109;BME280;10712;52.944;9.098;2022-10-26T07:17:05;101474.34;;;16.78;57.80
21109;BME280;10712;52.944;9.098;2022-10-26T07:19:31;101467.44;;;16.87;57.84
21109;BME280;10712;52.944;9.098;2022-10-26T07:21:57;101466.97;;;16.93;57.97
21109;BME280;10712;52.944;9.098;2022-10-26T07:24:25;101467.25;;;17.01;58.06
21109;BME280;10712;52.944;9.098;2022-10-26T07:26:53;101474.75;;;17.09;58.24
21109;BME280;10712;52.944;9.098;2022-10-26T07:29:24;101464.28;;;17.17;58.31
21109;BME280;10712;52.944;9.098;2022-10-26T07:31:51;101471.19;;;17.21;58.50
21109;BME280;10712;52.944;9.098;2022-10-26T07:34:18;101469.00;;;17.26;58.65
21109;BME280;10712;52.944;9.098;2022-10-26T07:36:44;101466.81;;;17.31;58.73
21109;BME280;10712;52.944;9.098;2022-10-26T07:39:09;101470.66;;;17.40;58.86
21109;BME280;10712;52.944;9.098;2022-10-26T07:41:35;101463.09;;;17.45;58.90
21109;BME280;10712;52.944;9.098;2022-10-26T07:44:01;101461.44;;;17.55;58.90
21109;BME280;10712;52.944;9.098;2022-10-26T07:46:28;101461.00;;;17.61;58.90
21109;BME280;10712;52.944;9.098;2022-10-26T07:48:54;101461.38;;;17.67;58.99
21109;BME280;10712;52.944;9.098;2022-10-26T07:51:19;101464.47;;;17.74;58.98
21109;BME280;10712;52.944;9.098;2022-10-26T07:53:46;101469.38;;;17.80;58.85
21109;BME280;10712;52.944;9.098;2022-10-26T07:56:12;101454.44;;;17.87;59.01
21109;BME280;10712;52.944;9.098;2022-10-26T07:58:38;101461.44;;;17.90;59.02
21109;BME280;10712;52.944;9.098;2022-10-26T08:01:13;101457.41;;;17.95;59.14
21109;BME280;10712;52.944;9.098;2022-10-26T08:03:39;101464.28;;;17.99;59.27
21109;BME280;10712;52.944;9.098;2022-10-26T08:06:05;101465.75;;;18.03;59.15
21109;BME280;10712;52.944;9.098;2022-10-26T08:08:32;101464.53;;;18.07;59.37
21109;BME280;10712;52.944;9.098;2022-10-26T08:10:58;101464.81;;;18.16;59.37
21109;BME280;10712;52.944;9.098;2022-10-26T08:13:25;101463.81;;;18.17;59.38
21109;BME280;10712;52.944;9.098;2022-10-26T08:15:57;101467.97;;;18.21;59.21
21109;BME280;10712;52.944;9.098;2022-10-26T08:18:23;101475.09;;;18.22;59.46
21109;BME280;10712;52.944;9.098;2022-10-26T08:20:49;101475.47;;;18.28;59.55
21109;BME280;10712;52.944;9.098;2022-10-26T08:23:15;101471.69;;;18.31;59.58
21109;BME280;10712;52.944;9.098;2022-10-26T08:25:41;101474.13;;;18.34;59.55
21109;BME280;10712;52.944;9.098;2022-10-26T08:28:06;101468.50;;;18.37;59.67
21109;BME280;10712;52.944;9.098;2022-10-26T08:30:33;101471.09;;;18.38;59.77
21109;BME280;10712;52.944;9.098;2022-10-26T08:33:06;101465.44;;;18.41;59.58
21109;BME280;10712;52.944;9.098;2022-10-26T08:35:34;101458.94;;;18.44;59.62
21109;BME280;10712;52.944;9.098;2022-10-26T08:38:00;101458.69;;;18.47;59.80
21109;BME280;10712;52.944;9.098;2022-10-26T08:40:30;101465.56;;;18.51;59.80
21109;BME280;10712;52.944;9.098;2022-10-26T08:43:10;101465.31;;;18.54;59.88
21109;BME280;10712;52.944;9.098;2022-10-26T08:45:44;101450.63;;;18.58;59.92
21109;BME280;10712;52.944;9.098;2022-10-26T08:48:16;101449.66;;;18.59;59.97
21109;BME280;10712;52.944;9.098;2022-10-26T08:50:54;101451.09;;;18.63;59.83
21109;BME280;10712;52.944;9.098;2022-10-26T08:53:39;101448.19;;;18.66;59.84
21109;BME280;10712;52.944;9.098;2022-10-26T08:56:21;101445.94;;;18.71;59.90
21109;BME280;10712;52.944;9.098;2022-10-26T08:58:58;101449.13;;;18.76;59.88
21109;BME280;10712;52.944;9.098;2022-10-26T09:01:29;101450.84;;;18.77;59.78
21109;BME280;10712;52.944;9.098;2022-10-26T09:04:02;101440.66;;;18.81;59.81
21109;BME280;10712;52.944;9.098;2022-10-26T09:07:11;101450.63;;;18.80;59.93
21109;BME280;10712;52.944;9.098;2022-10-26T09:09:49;101459.78;;;18.89;60.00
21109;BME280;10712;52.944;9.098;2022-10-26T09:13:02;101449.59;;;18.93;60.25
21109;BME280;10712;52.944;9.098;2022-10-26T09:19:11;101453.47;;;19.11;60.01
21109;BME280;10712;52.944;9.098;2022-10-26T09:21:56;101443.28;;;19.14;59.83
21109;BME280;10712;52.944;9.098;2022-10-26T09:24:31;101443.38;;;19.24;59.58
21109;BME280;10712;52.944;9.098;2022-10-26T09:27:31;101444.31;;;19.34;59.88
21109;BME280;10712;52.944;9.098;2022-10-26T09:30:12;101440.38;;;19.49;59.74
21109;BME280;10712;52.944;9.098;2022-10-26T09:32:47;101444.84;;;19.60;59.45
21109;BME280;10712;52.944;9.098;2022-10-26T09:35:26;101446.91;;;19.67;59.62
21109;BME280;10712;52.944;9.098;2022-10-26T09:41:25;101449.53;;;19.79;59.51
21109;BME280;10712;52.944;9.098;2022-10-26T09:44:02;101450.72;;;19.86;59.22
21109;BME280;10712;52.944;9.098;2022-10-26T09:47:19;101449.22;;;19.93;59.32
21109;BME280;10712;52.944;9.098;2022-10-26T09:49:25;101449.53;;;19.99;59.32
21109;BME280;10712;52.944;9.098;2022-10-26T09:51:55;101453.28;;;20.08;59.36
21109;BME280;10712;52.944;9.098;2022-10-26T09:54:21;101448.34;;;20.13;59.39
21109;BME280;10712;52.944;9.098;2022-10-26T09:56:54;101455.66;;;20.22;59.49
21109;BME280;10712;52.944;9.098;2022-10-26T09:59:23;101459.53;;;20.29;59.21
21109;BME280;10712;52.944;9.098;2022-10-26T10:01:49;101451.03;;;20.34;59.44
21109;BME280;10712;52.944;9.098;2022-10-26T10:04:17;101451.09;;;20.43;59.09
21109;BME280;10712;52.944;9.098;2022-10-26T10:09:25;101452.03;;;20.63;58.66
21109;BME280;10712;52.944;9.098;2022-10-26T10:12:00;101462.91;;;20.73;58.63
21109;BME280;10712;52.944;9.098;2022-10-26T10:14:36;101455.22;;;20.78;58.72
21109;BME280;10712;52.944;9.098;2022-10-26T10:17:21;101454.09;;;20.80;58.69
21109;BME280;10712;52.944;9.098;2022-10-26T10:19:48;101453.66;;;20.85;58.51
21109;BME280;10712;52.944;9.098;2022-10-26T10:24:42;101448.44;;;20.93;58.45
21109;BME280;10712;52.944;9.098;2022-10-26T10:27:17;101454.00;;;21.01;58.41
21109;BME280;10712;52.944;9.098;2022-10-26T10:29:47;101465.28;;;21.06;58.13
21109;BME280;10712;52.944;9.098;2022-10-26T10:32:19;101459.28;;;21.12;58.15
21109;BME280;10712;52.944;9.098;2022-10-26T10:34:51;101455.78;;;21.21;58.02
21109;BME280;10712;52.944;9.098;2022-10-26T10:37:35;101457.19;;;21.26;58.19
21109;BME280;10712;52.944;9.098;2022-10-26T10:40:26;101472.22;;;21.30;58.50
21109;BME280;10712;52.944;9.098;2022-10-26T10:43:05;101476.75;;;21.39;58.36
21109;BME280;10712;52.944;9.098;2022-10-26T10:45:36;101468.06;;;21.45;58.15
21109;BME280;10712;52.944;9.098;2022-10-26T10:50:53;101466.78;;;21.49;58.80
21109;BME280;10712;52.944;9.098;2022-10-26T11:01:20;101469.22;;;21.71;58.42
21109;BME280;10712;52.944;9.098;2022-10-26T11:07:15;101468.34;;;21.80;58.10
21109;BME280;10712;52.944;9.098;2022-10-26T11:09:45;101468.34;;;21.80;58.13
21109;BME280;10712;52.944;9.098;2022-10-26T11:12:28;101469.06;;;21.82;58.15
21109;BME280;10712;52.944;9.098;2022-10-26T11:15:12;101472.19;;;21.87;58.13
21109;BME280;10712;52.944;9.098;2022-10-26T11:18:17;101475.63;;;21.89;57.95
21109;BME280;10712;52.944;9.098;2022-10-26T11:21:00;101470.19;;;21.99;57.88
21109;BME280;10712;52.944;9.098;2022-10-26T11:23:46;101474.47;;;22.02;57.59
21109;BME280;10712;52.944;9.098;2022-10-26T11:26:40;101477.34;;;22.00;57.78
21109;BME280;10712;52.944;9.098;2022-10-26T11:29:49;101482.19;;;22.06;57.66
21109;BME280;10712;52.944;9.098;2022-10-26T11:32:29;101478.19;;;22.10;57.61
21109;BME280;10712;52.944;9.098;2022-10-26T11:43:47;101493.56;;;22.29;57.44
21109;BME280;10712;52.944;9.098;2022-10-26T11:46:44;101495.13;;;22.31;57.34
21109;BME280;10712;52.944;9.098;2022-10-26T11:49:38;101488.66;;;22.42;57.17
21109;BME280;10712;52.944;9.098;2022-10-26T11:52:38;101486.94;;;22.51;57.52
21109;BME280;10712;52.944;9.098;2022-10-26T11:55:10;101492.03;;;22.63;57.46
21109;BME280;10712;52.944;9.098;2022-10-26T11:57:37;101484.25;;;22.68;57.36
21109;BME280;10712;52.944;9.098;2022-10-26T12:00:15;101486.69;;;22.71;57.36
21109;BME280;10712;52.944;9.098;2022-10-26T12:02:48;101480.81;;;22.86;57.20
21109;BME280;10712;52.944;9.098;2022-10-26T12:07:47;101479.59;;;22.98;56.81
21109;BME280;10712;52.944;9.098;2022-10-26T12:10:32;101470.72;;;22.96;56.56
21109;BME280;10712;52.944;9.098;2022-10-26T12:13:16;101473.63;;;22.94;56.43
21109;BME280;10712;52.944;9.098;2022-10-26T12:16:06;101476.16;;;22.96;56.00
21109;BME280;10712;52.944;9.098;2022-10-26T12:18:51;101489.16;;;23.02;56.08
21109;BME280;10712;52.944;9.098;2022-10-26T12:21:19;101497.81;;;23.15;56.33
21109;BME280;10712;52.944;9.098;2022-10-26T12:24:01;101489.44;;;23.26;55.80
21109;BME280;10712;52.944;9.098;2022-10-26T12:26:36;101489.03;;;23.39;56.16
21109;BME280;10712;52.944;9.098;2022-10-26T12:33:57;101497.03;;;23.68;55.65
21109;BME280;10712;52.944;9.098;2022-10-26T12:39:39;101501.38;;;23.78;55.82
21109;BME280;10712;52.944;9.098;2022-10-26T13:03:34;101491.78;;;24.36;54.84
21109;BME280;10712;52.944;9.098;2022-10-26T13:08:55;101491.50;;;24.39;54.50
21109;BME280;10712;52.944;9.098;2022-10-26T13:11:35;101491.16;;;24.42;54.50
21109;BME280;10712;52.944;9.098;2022-10-26T13:16:51;101485.38;;;24.45;54.43
21109;BME280;10712;52.944;9.098;2022-10-26T13:20:00;101481.44;;;24.39;54.49
21109;BME280;10712;52.944;9.098;2022-10-26T13:22:29;101483.69;;;24.44;54.43
21109;BME280;10712;52.944;9.098;2022-10-26T13:25:04;101481.97;;;24.43;54.30
21109;BME280;10712;52.944;9.098;2022-10-26T13:32:32;101479.94;;;24.45;54.53
21109;BME280;10712;52.944;9.098;2022-10-26T13:35:00;101486.34;;;24.36;54.59
21109;BME280;10712;52.944;9.098;2022-10-26T13:37:30;101482.97;;;24.42;54.73
21109;BME280;10712;52.944;9.098;2022-10-26T13:39:59;101484.38;;;24.46;54.51
21109;BME280;10712;52.944;9.098;2022-10-26T13:42:45;101484.69;;;24.43;54.80
21109;BME280;10712;52.944;9.098;2022-10-26T13:45:20;101487.63;;;24.49;54.83
21109;BME280;10712;52.944;9.098;2022-10-26T13:50:39;101490.03;;;24.52;54.90
21109;BME280;10712;52.944;9.098;2022-10-26T13:56:12;101490.94;;;24.61;54.73
21109;BME280;10712;52.944;9.098;2022-10-26T14:01:23;101496.75;;;24.66;54.72
21109;BME280;10712;52.944;9.098;2022-10-26T14:03:49;101495.75;;;24.67;54.79
21109;BME280;10712;52.944;9.098;2022-10-26T14:06:34;101507.66;;;24.66;54.97
21109;BME280;10712;52.944;9.098;2022-10-26T14:09:12;101503.91;;;24.67;55.00
21109;BME280;10712;52.944;9.098;2022-10-26T14:11:53;101507.31;;;24.69;54.83
21109;BME280;10712;52.944;9.098;2022-10-26T14:14:33;101505.63;;;24.68;54.67
21109;BME280;10712;52.944;9.098;2022-10-26T14:17:01;101512.75;;;24.69;54.62
21109;BME280;10712;52.944;9.098;2022-10-26T14:19:32;101510.22;;;24.67;54.66
21109;BME280;10712;52.944;9.098;2022-10-26T14:21:59;101518.56;;;24.66;54.71
21109;BME280;10712;52.944;9.098;2022-10-26T14:24:35;101511.69;;;24.62;54.58
21109;BME280;10712;52.944;9.098;2022-10-26T14:27:19;101513.03;;;24.58;54.75
21109;BME280;10712;52.944;9.098;2022-10-26T14:29:46;101521.22;;;24.58;54.81
21109;BME280;10712;52.944;9.098;2022-10-26T14:32:29;101518.44;;;24.50;54.69
21109;BME280;10712;52.944;9.098;2022-10-26T14:34:58;101527.31;;;24.52;54.94
21109;BME280;10712;52.944;9.098;2022-10-26T14:40:22;101536.84;;;24.48;55.05
21109;BME280;10712;52.944;9.098;2022-10-26T14:42:57;101534.28;;;24.46;54.95
21109;BME280;10712;52.944;9.098;2022-10-26T14:45:35;101534.56;;;24.43;54.93
21109;BME280;10712;52.944;9.098;2022-10-26T14:48:05;101542.59;;;24.45;54.85
21109;BME280;10712;52.944;9.098;2022-10-26T14:50:32;101546.34;;;24.44;55.07
21109;BME280;10712;52.944;9.098;2022-10-26T14:53:10;101543.75;;;24.42;54.76
21109;BME280;10712;52.944;9.098;2022-10-26T14:55:51;101547.13;;;24.36;54.99
21109;BME280;10712;52.944;9.098;2022-10-26T14:58:29;101544.75;;;24.33;54.83
21109;BME280;10712;52.944;9.098;2022-10-26T15:06:41;101539.97;;;24.17;55.28
21109;BME280;10712;52.944;9.098;2022-10-26T15:09:57;101539.19;;;24.07;55.70
21109;BME280;10712;52.944;9.098;2022-10-26T15:12:35;101539.38;;;24.06;55.78
21109;BME280;10712;52.944;9.098;2022-10-26T15:17:42;101546.47;;;23.99;55.89
21109;BME280;10712;52.944;9.098;2022-10-26T15:20:19;101545.06;;;23.94;55.75
21109;BME280;10712;52.944;9.098;2022-10-26T15:22:57;101543.81;;;23.89;56.22
21109;BME280;10712;52.944;9.098;2022-10-26T15:25:28;101543.09;;;23.87;55.97
21109;BME280;10712;52.944;9.098;2022-10-26T15:28:22;101547.78;;;23.77;56.27
21109;BME280;10712;52.944;9.098;2022-10-26T15:31:06;101553.53;;;23.74;56.33